Date,TemperatureHighF,TemperatureAvgF,TemperatureLowF,DewpointHighF,DewpointAvgF,DewpointLowF,HumidityHigh,HumidityAvg,HumidityLow,PressureMaxIn,PressureMinIn,WindSpeedMaxMPH,WindSpeedAvgMPH,GustSpeedMaxMPH,PrecipitationSumIn
2013-4-1,43,30,25,32,20,17,92,69,44,30.20,30.04,18,2,18,0.00
2013-4-2,33,28,26,30,27,24,95,93,88,30.29,30.15,12,2,13,0.04
2013-4-3,48,34,23,29,24,21,93,71,38,30.36,30.28,22,3,24,0.29
2013-4-4,54,39,32,25,22,16,68,52,24,30.32,30.10,24,6,33,0.00
2013-4-5,56,43,31,30,20,13,91,42,23,30.10,29.74,36,6,38,0.00
2013-4-6,49,38,28,25,21,16,76,52,29,30.04,29.87,24,6,26,0.09
2013-4-7,47,37,29,32,23,19,90,58,38,29.99,29.83,30,9,39,0.00
2013-4-8,48,36,22,28,22,18,90,60,33,29.87,29.54,24,4,26,0.02
2013-4-9,21,9,0,19,5,-4,91,83,70,30.49,29.74,12,2,12,0.07
2013-4-10,30,12,-3,18,6,-7,92,78,55,30.57,30.31,40,4,40,0.05
2013-4-11,39,29,20,26,19,10,78,67,53,30.32,30.05,40,9,44,0.07
2013-4-12,45,32,26,26,21,9,92,66,25,30.10,30.01,33,6,39,0.00
2013-4-13,50,39,26,30,15,8,90,40,25,30.08,29.52,41,8,41,0.00
2013-4-14,32,24,19,29,15,4,91,68,35,29.98,29.50,39,8,39,0.17
2013-4-15,24,20,17,22,16,8,91,84,55,30.23,29.91,21,2,22,0.00
2013-4-16,25,19,14,23,17,11,92,90,89,30.25,30.10,21,3,22,0.09
2013-4-17,22,15,4,19,12,1,91,87,82,30.44,30.13,16,3,18,0.00
2013-4-18,22,13,4,9,4,-1,92,68,50,30.66,30.41,40,9,41,0.00
2013-4-19,39,27,17,19,12,7,71,55,36,30.59,30.24,46,10,46,0.02
2013-4-20,42,32,26,28,22,17,89,66,42,30.24,30.09,24,5,29,0.01
2013-4-21,45,35,27,24,18,10,82,51,29,30.26,30.11,25,6,25,0.00
2013-4-22,42,24,11,30,19,7,93,80,55,30.39,30.01,22,4,30,0.21
2013-4-23,30,16,9,18,8,4,88,72,40,30.58,30.34,31,4,31,0.22
2013-4-24,39,27,15,14,8,0,62,44,28,30.56,30.46,38,7,38,0.02
2013-4-25,52,38,24,19,10,-3,48,32,20,30.47,30.10,28,4,29,0.00
2013-4-26,48,40,32,21,16,12,51,38,27,30.37,30.16,19,3,19,0.00
2013-4-27,56,48,33,21,16,10,49,28,20,30.36,30.16,29,8,33,0.00
2013-4-28,61,49,40,28,20,12,50,31,21,30.16,29.89,31,7,32,0.00
2013-4-29,62,50,37,29,23,17,68,38,20,29.94,29.63,33,8,33,0.00
2013-4-30,50,43,28,36,28,17,92,59,27,29.90,29.59,19,5,19,0.02